createdAt,value
2019-05-12T00:06:03.970Z,100127.00
2019-05-12T00:16:45.956Z,100149.00
2019-05-12T00:27:28.443Z,100186.00
2019-05-12T00:38:09.535Z,100225.00
2019-05-12T00:48:51.886Z,100270.00
2019-05-12T00:59:35.168Z,100317.00
2019-05-12T01:10:17.999Z,100341.00
2019-05-12T01:21:01.080Z,100390.00
2019-05-12T01:31:39.091Z,100438.00
2019-05-12T01:42:22.186Z,100497.00
2019-05-12T01:53:07.921Z,100544.00
2019-05-12T02:03:49.200Z,100573.00
2019-05-12T02:14:33.339Z,100577.00
2019-05-12T02:25:11.699Z,100563.00
2019-05-12T02:35:49.328Z,100572.00
2019-05-12T02:46:34.811Z,100618.00
2019-05-12T02:57:15.309Z,100650.00
2019-05-12T03:07:58.145Z,100682.00
2019-05-12T03:18:39.875Z,100717.00
2019-05-12T03:29:25.061Z,100753.00
2019-05-12T03:40:05.557Z,100813.00
2019-05-12T03:50:48.217Z,100856.00
2019-05-12T04:01:30.183Z,100916.00
2019-05-12T04:12:14.909Z,100943.00
2019-05-12T04:22:56.189Z,100959.00
2019-05-12T04:33:39.367Z,100972.00
2019-05-12T04:44:25.147Z,100996.00
2019-05-12T04:55:07.093Z,100984.00
2019-05-12T05:05:54.962Z,100965.00
2019-05-12T05:16:37.227Z,100954.00
2019-05-12T05:27:20.060Z,100915.00
2019-05-12T05:38:04.302Z,100843.00
2019-05-12T05:48:40.380Z,100698.00
2019-05-12T05:59:31.490Z,100761.00
2019-05-12T06:10:05.371Z,100767.00
2019-05-12T06:20:48.341Z,100750.00
2019-05-12T06:31:30.003Z,100760.00
2019-05-12T06:42:16.826Z,100760.00
2019-05-12T06:52:55.466Z,100747.00
2019-05-12T07:03:40.788Z,100705.00
2019-05-12T07:14:23.232Z,100657.00
2019-05-12T07:24:58.289Z,100602.00
2019-05-12T07:35:39.277Z,100568.00
2019-05-12T07:46:27.538Z,100524.00
2019-05-12T07:57:12.082Z,100507.00
2019-05-12T08:07:50.590Z,100548.00
2019-05-12T08:18:41.017Z,100516.00
2019-05-12T08:29:21.342Z,100480.00
2019-05-12T08:40:05.306Z,100407.00
2019-05-12T08:50:46.135Z,100416.00
2019-05-12T09:01:26.565Z,100336.00
2019-05-12T09:12:03.539Z,100341.00
2019-05-12T09:22:39.109Z,100354.00
2019-05-12T09:33:21.345Z,100360.00
2019-05-12T09:44:03.930Z,100295.00
2019-05-12T09:54:46.300Z,100224.00
2019-05-12T10:05:30.414Z,100309.00
2019-05-12T10:16:09.629Z,100188.00
2019-05-12T10:26:50.697Z,100151.00
2019-05-12T10:37:29.638Z,100077.00
2019-05-12T10:48:13.928Z,100093.00
2019-05-12T10:58:50.222Z,100065.00
2019-05-12T11:09:32.305Z,99959.00
2019-05-12T11:20:14.164Z,99981.00
2019-05-12T11:30:54.428Z,99892.00
2019-05-12T11:41:33.414Z,99938.00
2019-05-12T11:52:19.465Z,99936.00
2019-05-12T12:03:03.034Z,99941.00
2019-05-12T12:13:40.243Z,99842.00
2019-05-12T12:24:30.035Z,99803.00
2019-05-12T12:35:11.866Z,99651.00
2019-05-12T12:45:51.244Z,99515.00
2019-05-12T12:56:34.074Z,99612.00
2019-05-12T13:07:14.356Z,99610.00
2019-05-12T13:17:58.580Z,99628.00
2019-05-12T13:28:39.372Z,99666.00
2019-05-12T13:39:16.672Z,99510.00
2019-05-12T13:49:58.351Z,99707.00
2019-05-12T14:00:41.510Z,99632.00
2019-05-12T14:11:28.035Z,99613.00
2019-05-12T14:21:48.753Z,99682.00
2019-05-12T14:32:19.158Z,99634.00
2019-05-12T14:42:54.485Z,99710.00
2019-05-12T14:53:38.406Z,99614.00
2019-05-12T15:04:08.685Z,99762.00
2019-05-12T15:14:48.675Z,99763.00
2019-05-12T15:25:19.598Z,99820.00
2019-05-12T15:35:57.596Z,99867.00
2019-05-12T15:46:43.450Z,99889.00
2019-05-12T15:57:24.698Z,99914.00
2019-05-12T16:08:06.501Z,99931.00
2019-05-12T16:18:50.560Z,99893.00
2019-05-12T16:29:33.331Z,99894.00
2019-05-12T16:40:15.955Z,99931.00
2019-05-12T16:50:55.645Z,99931.00
2019-05-12T17:01:38.501Z,99919.00
2019-05-12T17:12:23.927Z,99888.00
2019-05-12T17:23:03.806Z,99901.00
2019-05-12T17:33:44.604Z,99951.00
2019-05-12T17:44:31.347Z,99998.00
2019-05-12T17:55:14.485Z,100052.00
2019-05-12T18:05:57.940Z,100062.00
2019-05-12T18:16:43.377Z,100057.00
2019-05-12T18:27:20.837Z,100096.00
2019-05-12T18:38:08.036Z,100111.00
2019-05-12T18:48:43.523Z,100165.00
2019-05-12T18:59:28.043Z,100178.00
2019-05-12T19:10:06.644Z,100237.00
2019-05-12T19:20:49.658Z,100291.00
2019-05-12T19:31:36.750Z,100339.00
2019-05-12T19:42:20.208Z,100374.00
2019-05-12T19:52:54.555Z,100421.00
2019-05-12T20:03:38.012Z,100473.00
2019-05-12T20:14:21.110Z,100557.00
2019-05-12T20:24:48.257Z,100645.00
2019-05-12T20:35:27.549Z,100732.00
2019-05-12T20:46:03.643Z,100811.00
2019-05-12T20:56:39.550Z,100911.00
2019-05-12T21:07:22.112Z,100971.00
2019-05-12T21:18:02.675Z,101019.00
2019-05-12T21:28:37.135Z,101099.00
2019-05-12T21:39:10.626Z,101153.00
2019-05-12T21:49:55.074Z,101215.00
2019-05-12T22:00:23.801Z,101267.00
2019-05-12T22:11:09.615Z,101316.00
2019-05-12T22:21:44.485Z,101342.00
2019-05-12T22:32:19.008Z,101383.00
2019-05-12T22:43:01.295Z,101437.00
2019-05-12T22:53:34.601Z,101462.00
2019-05-12T23:04:14.332Z,101534.00
2019-05-12T23:15:02.819Z,101532.00
2019-05-12T23:25:44.085Z,101553.00
2019-05-12T23:36:35.278Z,101582.00
2019-05-12T23:47:04.400Z,101593.00
2019-05-12T23:57:44.741Z,101627.00
